Time;durP1;ratioP1;P1;durP2;ratioP2;P2;SDS_P1;SDS_P2;PMS_P1;PMS_P2;Temp;Humidity;BMP_temperature;BMP_pressure;BME280_temperature;BME280_humidity;BME280_pressure;Samples;Min_cycle;Max_cycle;Signal;HPM_P1;HPM_P2
2023/05/29 00:00:23;;;;;;;7.55;1.75;;;8.50;99.90;;;;;;4955590;28;20050;-80
2023/05/29 00:02:52;;;;;;;10.32;1.90;;;8.50;99.90;;;;;;4949995;28;20046;-79
2023/05/29 00:05:18;;;;;;;7.15;1.42;;;8.50;99.90;;;;;;4966112;28;20109;-80
2023/05/29 00:07:44;;;;;;;7.82;1.55;;;8.80;99.90;;;;;;4951582;28;20043;-79
2023/05/29 00:10:11;;;;;;;10.98;1.80;;;8.50;99.90;;;;;;4948898;28;20142;-80
2023/05/29 00:12:40;;;;;;;6.20;1.42;;;8.50;99.90;;;;;;4966592;28;20198;-80
2023/05/29 00:15:06;;;;;;;6.75;1.30;;;8.50;99.90;;;;;;4965960;28;20043;-81
2023/05/29 00:17:34;;;;;;;7.38;1.42;;;8.40;99.90;;;;;;4930793;28;20059;-81
2023/05/29 00:20:01;;;;;;;6.10;1.30;;;8.40;99.90;;;;;;4937565;28;20043;-81
2023/05/29 00:22:27;;;;;;;7.78;1.70;;;8.40;99.90;;;;;;4960492;28;20062;-79
2023/05/29 00:24:53;;;;;;;6.60;1.25;;;8.30;99.90;;;;;;4950994;28;20042;-78
2023/05/29 00:27:19;;;;;;;5.35;1.52;;;8.30;99.90;;;;;;4946984;28;20112;-79
2023/05/29 00:29:46;;;;;;;6.72;1.88;;;8.20;99.90;;;;;;4950616;28;20462;-81
2023/05/29 00:32:12;;;;;;;6.68;1.23;;;8.20;99.90;;;;;;4965644;28;20042;-79
2023/05/29 00:34:37;;;;;;;6.30;1.50;;;8.20;99.90;;;;;;4941485;29;20050;-79
2023/05/29 00:37:04;;;;;;;5.88;1.13;;;8.20;99.90;;;;;;4965473;28;20065;-79
2023/05/29 00:39:30;;;;;;;4.45;1.52;;;8.20;99.90;;;;;;4938222;28;20168;-79
2023/05/29 00:41:56;;;;;;;5.88;1.88;;;8.10;99.90;;;;;;4974388;28;20086;-80
2023/05/29 00:44:22;;;;;;;9.25;1.65;;;8.10;99.90;;;;;;4967987;28;20105;-78
2023/05/29 00:46:52;;;;;;;7.40;1.98;;;8.10;99.90;;;;;;4972069;28;20064;-78
2023/05/29 00:49:23;;;;;;;5.38;1.25;;;8.10;99.90;;;;;;4972569;28;20054;-79
2023/05/29 00:51:53;;;;;;;5.03;1.40;;;8.00;99.90;;;;;;4981599;28;20085;-78
2023/05/29 00:54:26;;;;;;;7.30;1.77;;;8.00;99.90;;;;;;4959442;28;20453;-78
2023/05/29 00:56:52;;;;;;;7.40;1.80;;;7.90;99.90;;;;;;4956318;28;20039;-80
2023/05/29 00:59:21;;;;;;;5.40;1.70;;;7.90;99.90;;;;;;4972089;28;20039;-80
2023/05/29 01:01:52;;;;;;;6.95;1.65;;;7.80;99.90;;;;;;4937890;28;20113;-79
2023/05/29 01:04:20;;;;;;;6.93;1.40;;;7.80;99.90;;;;;;4946141;28;20604;-80
2023/05/29 01:06:45;;;;;;;6.32;1.45;;;7.80;99.90;;;;;;4953446;28;20057;-79
2023/05/29 01:09:11;;;;;;;8.30;1.98;;;7.80;99.90;;;;;;4952544;28;20411;-79
2023/05/29 01:11:56;;;;;;;9.35;1.83;;;7.80;99.90;;;;;;4968991;28;20112;-79
2023/05/29 01:14:46;;;;;;;8.32;1.88;;;7.80;99.90;;;;;;4953154;28;20428;-80
2023/05/29 01:17:17;;;;;;;6.85;1.67;;;7.80;99.90;;;;;;4953259;28;20389;-80
2023/05/29 01:20:07;;;;;;;8.60;2.00;;;7.80;99.90;;;;;;4951318;28;20050;-80
2023/05/29 01:22:51;;;;;;;7.45;1.52;;;7.80;99.90;;;;;;4991799;28;20043;-80
2023/05/29 01:26:01;;;;;;;6.63;1.20;;;7.80;99.90;;;;;;4977884;28;20536;-80
2023/05/29 01:28:48;;;;;;;9.48;1.70;;;7.70;99.90;;;;;;4954998;28;20057;-79
2023/05/29 01:31:20;;;;;;;6.05;1.77;;;7.70;99.90;;;;;;4942985;28;20061;-81
2023/05/29 01:33:58;;;;;;;9.50;2.33;;;7.70;99.90;;;;;;4965933;28;20035;-81
2023/05/29 01:36:26;;;;;;;6.50;1.90;;;7.80;99.90;;;;;;4953622;28;20359;-79
2023/05/29 01:38:52;;;;;;;;;;;7.80;99.90;;;;;;4955348;28;20386;-79
2023/05/29 01:41:20;;;;;;;6.07;1.23;;;7.80;99.90;;;;;;4971906;28;19918;-80
2023/05/29 01:43:47;;;;;;;6.07;1.70;;;7.90;99.90;;;;;;4957140;28;20057;-80
2023/05/29 01:46:17;;;;;;;7.07;1.45;;;7.80;99.90;;;;;;4972344;28;20437;-79
2023/05/29 01:48:44;;;;;;;8.65;2.45;;;7.80;99.90;;;;;;4946978;28;20111;-80
2023/05/29 01:51:12;;;;;;;7.05;1.50;;;7.80;99.90;;;;;;4962357;28;20055;-79
2023/05/29 01:53:42;;;;;;;8.18;1.90;;;7.90;99.90;;;;;;4958759;28;20106;-80
2023/05/29 01:56:09;;;;;;;10.63;2.35;;;7.90;99.90;;;;;;4937087;28;20046;-79
2023/05/29 01:58:38;;;;;;;7.07;1.63;;;7.90;99.90;;;;;;4972945;28;20108;-81
2023/05/29 02:01:04;;;;;;;10.07;1.77;;;7.90;99.90;;;;;;4952099;28;20420;-80
2023/05/29 02:03:30;;;;;;;11.13;2.40;;;7.90;99.90;;;;;;4969549;28;20042;-79
2023/05/29 02:05:58;;;;;;;7.63;1.50;;;7.90;99.90;;;;;;4952263;28;20046;-80
2023/05/29 02:08:24;;;;;;;7.82;1.70;;;7.90;99.90;;;;;;4968663;28;20128;-80
2023/05/29 02:10:50;;;;;;;7.10;1.40;;;7.90;99.90;;;;;;4953255;28;20482;-81
2023/05/29 02:13:17;;;;;;;8.52;1.77;;;7.90;99.90;;;;;;4969326;28;20043;-80
2023/05/29 02:15:43;;;;;;;5.75;1.48;;;7.90;99.90;;;;;;4955480;28;20405;-80
2023/05/29 02:18:12;;;;;;;6.47;1.60;;;7.90;99.90;;;;;;4967803;28;20122;-80
2023/05/29 02:20:38;;;;;;;7.50;1.42;;;7.90;99.90;;;;;;4971982;28;20393;-81
2023/05/29 02:23:04;;;;;;;5.65;1.42;;;7.90;99.90;;;;;;4951832;28;20066;-80
2023/05/29 02:25:30;;;;;;;8.55;1.88;;;7.90;99.90;;;;;;4983145;28;20136;-80
2023/05/29 02:27:56;;;;;;;5.75;1.52;;;7.90;99.90;;;;;;4956958;28;20125;-80
2023/05/29 02:30:23;;;;;;;6.13;1.85;;;7.80;99.90;;;;;;4965913;28;20406;-79
2023/05/29 02:32:49;;;;;;;5.25;1.45;;;7.80;99.90;;;;;;4937059;28;20046;-80
2023/05/29 02:35:17;;;;;;;5.45;1.25;;;7.80;99.90;;;;;;4950902;28;20097;-79
2023/05/29 02:37:43;;;;;;;9.23;1.50;;;7.70;99.90;;;;;;4950564;28;20045;-81
2023/05/29 02:40:09;;;;;;;11.15;1.70;;;7.60;99.90;;;;;;4967442;28;20046;-82
2023/05/29 02:42:39;;;;;;;8.13;1.50;;;7.60;99.90;;;;;;4967982;28;20039;-80
2023/05/29 02:45:05;;;;;;;7.53;1.80;;;7.60;99.90;;;;;;4969893;28;20039;-81
2023/05/29 02:47:31;;;;;;;6.07;1.33;;;7.60;99.90;;;;;;4950562;28;20062;-79
2023/05/29 02:49:57;;;;;;;7.38;1.80;;;7.60;99.90;;;;;;4968495;28;20516;-79
2023/05/29 02:52:23;;;;;;;6.60;1.90;;;7.60;99.90;;;;;;4951837;28;20246;-79
2023/05/29 02:54:50;;;;;;;4.35;1.10;;;7.60;99.90;;;;;;4973815;28;20497;-79
2023/05/29 02:57:16;;;;;;;7.32;1.95;;;7.60;99.90;;;;;;4949667;28;20565;-78
2023/05/29 02:59:44;;;;;;;7.50;1.70;;;7.60;99.90;;;;;;4970872;28;20057;-80
2023/05/29 03:02:09;;;;;;;8.40;1.80;;;7.70;99.90;;;;;;4976651;28;20456;-80
2023/05/29 03:04:35;;;;;;;9.00;1.85;;;7.70;99.90;;;;;;4953989;28;20046;-80
2023/05/29 03:07:01;;;;;;;8.13;1.58;;;7.80;99.90;;;;;;4936792;28;20127;-80
2023/05/29 03:09:27;;;;;;;5.85;1.55;;;7.70;99.90;;;;;;4958507;28;20507;-80
2023/05/29 03:11:52;;;;;;;4.88;1.45;;;7.80;99.90;;;;;;4991650;28;20042;-80
2023/05/29 03:14:18;;;;;;;8.23;2.00;;;7.80;99.90;;;;;;4966584;28;20305;-81
2023/05/29 03:16:45;;;;;;;7.35;1.95;;;7.80;99.90;;;;;;4952076;28;20500;-81
2023/05/29 03:19:11;;;;;;;5.72;1.70;;;7.80;99.90;;;;;;4978587;28;20446;-80
2023/05/29 03:21:37;;;;;;;6.75;2.08;;;7.80;99.90;;;;;;4928772;28;20130;-81
2023/05/29 03:24:03;;;;;;;6.72;1.90;;;7.90;99.90;;;;;;4995046;28;20180;-81
2023/05/29 03:26:29;;;;;;;6.32;1.42;;;7.90;99.90;;;;;;4954997;28;20054;-78
2023/05/29 03:28:55;;;;;;;5.38;1.30;;;7.80;99.90;;;;;;4968103;28;20368;-79
2023/05/29 03:31:21;;;;;;;6.25;1.70;;;7.80;99.90;;;;;;4974005;28;20086;-81
2023/05/29 03:33:47;;;;;;;10.50;1.63;;;7.80;99.90;;;;;;4950344;28;20043;-79
2023/05/29 03:36:19;;;;;;;6.17;1.37;;;7.90;99.90;;;;;;4950784;28;20046;-79
2023/05/29 03:38:45;;;;;;;6.63;1.55;;;7.90;99.90;;;;;;4950969;28;20466;-81
2023/05/29 03:41:11;;;;;;;3.25;1.20;;;8.00;99.90;;;;;;4926997;28;20513;-79
2023/05/29 03:43:37;;;;;;;4.72;1.77;;;8.10;99.90;;;;;;4951082;28;20093;-81
2023/05/29 03:46:03;;;;;;;7.68;1.80;;;8.10;99.90;;;;;;4950435;28;20314;-79
2023/05/29 03:48:29;;;;;;;8.45;1.85;;;8.20;99.90;;;;;;4949994;28;20051;-79
2023/05/29 03:50:55;;;;;;;7.97;1.92;;;8.30;99.90;;;;;;4937911;28;20363;-78
2023/05/29 03:53:21;;;;;;;8.70;1.65;;;8.30;99.90;;;;;;4967517;28;20062;-79
2023/05/29 03:55:47;;;;;;;10.32;1.83;;;8.40;99.90;;;;;;4951166;28;20047;-80
2023/05/29 03:58:13;;;;;;;7.18;1.70;;;8.50;99.90;;;;;;4976729;28;20027;-82
2023/05/29 04:00:39;;;;;;;7.45;2.00;;;8.50;99.90;;;;;;4942831;28;20077;-81
2023/05/29 04:03:06;;;;;;;7.63;1.83;;;8.50;99.90;;;;;;4961326;28;20085;-83
2023/05/29 04:05:32;;;;;;;6.85;1.73;;;8.60;99.90;;;;;;4963843;28;20426;-82
2023/05/29 04:07:57;;;;;;;6.75;2.40;;;8.70;99.90;;;;;;4958113;28;20070;-82
2023/05/29 04:10:24;;;;;;;6.57;1.65;;;8.70;99.90;;;;;;4976206;28;20691;-81
2023/05/29 04:12:51;;;;;;;7.03;1.40;;;8.80;99.90;;;;;;4955171;28;20572;-81
2023/05/29 04:15:17;;;;;;;8.20;2.13;;;8.80;99.90;;;;;;4992215;28;20047;-81
2023/05/29 04:17:42;;;;;;;11.35;1.70;;;8.90;99.90;;;;;;4954383;28;20046;-80
2023/05/29 04:20:09;;;;;;;10.93;2.47;;;8.90;99.90;;;;;;4981865;28;20046;-80
2023/05/29 04:22:38;;;;;;;8.75;2.13;;;9.00;99.90;;;;;;4948407;28;20050;-80
2023/05/29 04:25:04;;;;;;;10.02;1.70;;;9.00;99.90;;;;;;4965453;28;20078;-80
2023/05/29 04:27:37;;;;;;;7.97;1.50;;;9.10;99.90;;;;;;4951510;28;20046;-80
2023/05/29 04:30:07;;;;;;;6.03;1.80;;;9.10;99.90;;;;;;4954701;28;20058;-81
2023/05/29 04:32:33;;;;;;;8.20;2.03;;;9.20;99.90;;;;;;4953448;28;20137;-81
2023/05/29 04:35:02;;;;;;;8.32;1.92;;;9.20;99.90;;;;;;4953331;28;20047;-80
2023/05/29 04:37:32;;;;;;;10.35;1.77;;;9.30;99.90;;;;;;4956067;28;20084;-80
2023/05/29 04:39:57;;;;;;;6.60;1.73;;;9.30;99.90;;;;;;4970267;28;20038;-80
2023/05/29 04:42:24;;;;;;;7.30;1.73;;;9.30;99.90;;;;;;4936851;28;20039;-79
2023/05/29 04:44:52;;;;;;;9.02;1.77;;;9.30;99.90;;;;;;4937808;28;20043;-80
2023/05/29 04:47:18;;;;;;;9.80;2.00;;;9.30;99.90;;;;;;4953370;28;20054;-79
2023/05/29 04:49:49;;;;;;;10.00;2.03;;;9.30;99.90;;;;;;4976449;28;20097;-79
2023/05/29 04:52:16;;;;;;;7.78;1.70;;;9.40;99.90;;;;;;4979459;28;20053;-79
2023/05/29 04:54:41;;;;;;;5.85;1.70;;;9.40;99.90;;;;;;4968921;28;20042;-80
2023/05/29 04:57:08;;;;;;;7.85;1.75;;;9.40;99.90;;;;;;4953595;28;20046;-80
2023/05/29 04:59:34;;;;;;;8.45;2.10;;;9.50;99.90;;;;;;4970712;28;20449;-81
2023/05/29 05:02:01;;;;;;;7.05;2.08;;;9.50;99.90;;;;;;4993211;28;20042;-80
2023/05/29 05:04:26;;;;;;;8.43;1.95;;;9.60;99.90;;;;;;4969565;28;20076;-81
2023/05/29 05:06:52;;;;;;;6.53;1.60;;;9.70;99.90;;;;;;4936556;28;20403;-83
2023/05/29 05:09:18;;;;;;;9.10;2.63;;;9.80;99.90;;;;;;4952621;28;20070;-81
2023/05/29 05:11:44;;;;;;;11.80;2.33;;;10.00;99.90;;;;;;4951986;28;20046;-80
2023/05/29 05:14:09;;;;;;;8.60;1.75;;;10.10;99.90;;;;;;4957076;28;20044;-82
2023/05/29 05:16:35;;;;;;;6.90;2.03;;;10.20;99.90;;;;;;4972629;28;20102;-82
2023/05/29 05:19:01;;;;;;;7.90;2.40;;;10.30;99.90;;;;;;4968754;28;20094;-82
2023/05/29 05:21:27;;;;;;;14.20;2.00;;;10.50;99.90;;;;;;4934952;28;20291;-80
2023/05/29 05:23:52;;;;;;;10.10;1.95;;;10.60;99.90;;;;;;4971249;28;20050;-80
2023/05/29 05:26:18;;;;;;;11.85;2.28;;;10.70;99.90;;;;;;4969573;28;20051;-80
2023/05/29 05:28:44;;;;;;;8.60;2.10;;;10.80;99.90;;;;;;4974243;28;20061;-81
2023/05/29 05:31:11;;;;;;;8.35;1.83;;;10.80;99.90;;;;;;4969903;28;20077;-81
2023/05/29 05:33:37;;;;;;;9.57;2.45;;;10.80;99.90;;;;;;4967339;28;20047;-82
2023/05/29 05:36:02;;;;;;;12.75;2.20;;;10.80;99.90;;;;;;4958279;28;20062;-82
2023/05/29 05:38:28;;;;;;;7.93;1.75;;;10.90;99.90;;;;;;4965920;28;21532;-82
2023/05/29 05:40:54;;;;;;;8.52;1.98;;;10.90;99.90;;;;;;4991353;28;20046;-82
2023/05/29 05:43:22;;;;;;;6.95;2.00;;;11.00;99.90;;;;;;4952284;28;20046;-81
2023/05/29 05:45:48;;;;;;;12.48;2.10;;;11.10;99.90;;;;;;4990491;28;20098;-83
2023/05/29 05:48:14;;;;;;;8.82;2.38;;;11.20;99.90;;;;;;4975183;28;20085;-81
2023/05/29 05:50:40;;;;;;;7.45;2.22;;;11.20;99.90;;;;;;4976641;28;20042;-81
2023/05/29 05:53:06;;;;;;;10.10;2.00;;;11.30;99.90;;;;;;4956097;28;20062;-82
2023/05/29 05:55:32;;;;;;;10.27;2.20;;;11.50;99.90;;;;;;4958095;28;20042;-81
2023/05/29 05:57:57;;;;;;;10.43;2.25;;;11.70;99.90;;;;;;4977329;23;20150;-35
2023/05/29 06:00:24;;;;;;;12.35;2.35;;;12.00;99.90;;;;;;4982023;28;20401;-35
2023/05/29 06:02:55;;;;;;;9.35;2.58;;;12.40;99.90;;;;;;5004776;28;20042;-34
2023/05/29 06:05:21;;;;;;;11.60;2.97;;;12.90;99.90;;;;;;4997543;28;20181;-35
2023/05/29 06:07:47;;;;;;;11.55;2.47;;;13.20;99.90;;;;;;4986947;28;20066;-35
2023/05/29 06:10:13;;;;;;;6.70;2.15;;;13.40;99.90;;;;;;4993320;28;20112;-35
2023/05/29 06:12:39;;;;;;;14.55;2.63;;;13.50;99.90;;;;;;4983732;28;20481;-35
2023/05/29 06:15:08;;;;;;;11.55;2.20;;;13.70;99.90;;;;;;4976352;28;20070;-35
2023/05/29 06:17:34;;;;;;;7.45;2.33;;;13.90;99.90;;;;;;4988456;28;20493;-35
2023/05/29 06:20:00;;;;;;;10.57;2.00;;;13.90;99.90;;;;;;4976280;28;20049;-35
2023/05/29 06:22:26;;;;;;;8.13;2.00;;;13.80;99.90;;;;;;4986097;28;20140;-35
2023/05/29 06:24:52;;;;;;;11.40;3.28;;;13.70;99.90;;;;;;4961011;28;20038;-35
2023/05/29 06:27:18;;;;;;;9.90;2.42;;;13.50;99.90;;;;;;4980892;28;20034;-35
2023/05/29 06:29:44;;;;;;;14.25;2.72;;;13.30;99.90;;;;;;4972529;28;20440;-35
2023/05/29 06:32:10;;;;;;;10.40;2.40;;;13.10;99.90;;;;;;4974586;28;20101;-35
2023/05/29 06:34:36;;;;;;;8.45;2.42;;;13.00;99.90;;;;;;4976443;28;20042;-35
2023/05/29 06:37:01;;;;;;;8.98;2.28;;;13.00;99.90;;;;;;4977885;28;20046;-35
2023/05/29 06:39:27;;;;;;;9.40;2.40;;;13.10;99.90;;;;;;4970298;28;20042;-35
2023/05/29 06:41:53;;;;;;;12.10;2.42;;;13.20;99.90;;;;;;4970930;28;20105;-35
2023/05/29 06:44:18;;;;;;;8.90;2.47;;;13.10;99.90;;;;;;4973996;28;20125;-35
2023/05/29 06:46:44;;;;;;;10.00;2.30;;;13.20;99.90;;;;;;4976979;28;20035;-35
2023/05/29 06:49:10;;;;;;;9.93;2.60;;;13.30;99.90;;;;;;4982406;28;20041;-35
2023/05/29 06:51:36;;;;;;;8.40;2.20;;;13.30;99.90;;;;;;4976087;28;20473;-35
2023/05/29 06:54:01;;;;;;;8.60;2.00;;;13.20;99.90;;;;;;4983205;28;20037;-35
2023/05/29 06:56:28;;;;;;;9.30;1.95;;;13.00;99.90;;;;;;4977864;28;20577;-36
2023/05/29 06:58:53;;;;;;;9.15;2.65;;;13.20;99.90;;;;;;4982495;28;20061;-35
2023/05/29 07:01:19;;;;;;;8.85;2.17;;;13.40;99.90;;;;;;4980366;28;20035;-35
2023/05/29 07:03:51;;;;;;;11.95;3.03;;;13.50;99.90;;;;;;4979899;28;20053;-35
2023/05/29 07:06:16;;;;;;;10.63;2.40;;;13.60;99.90;;;;;;4998769;28;20047;-35
2023/05/29 07:08:42;;;;;;;12.10;2.53;;;13.60;99.90;;;;;;4976859;28;20041;-35
2023/05/29 07:11:09;;;;;;;13.75;2.13;;;13.70;99.90;;;;;;4983388;28;20275;-35
2023/05/29 07:13:35;;;;;;;7.85;1.92;;;14.00;99.90;;;;;;4983859;28;20121;-35
2023/05/29 07:16:01;;;;;;;10.27;2.20;;;14.30;99.90;;;;;;4985707;28;20083;-35
2023/05/29 07:18:27;;;;;;;11.32;2.25;;;14.30;99.90;;;;;;4983231;28;20046;-35
2023/05/29 07:20:53;;;;;;;9.23;2.83;;;14.40;99.90;;;;;;4978563;28;20396;-35
2023/05/29 07:23:19;;;;;;;11.45;2.58;;;14.60;99.90;;;;;;4965887;28;20100;-35
2023/05/29 07:25:45;;;;;;;9.77;2.45;;;14.90;99.90;;;;;;4980264;28;20360;-35
2023/05/29 07:28:10;;;;;;;9.70;2.20;;;15.30;99.90;;;;;;4977791;28;20042;-35
2023/05/29 07:30:36;;;;;;;11.45;2.50;;;15.90;99.90;;;;;;5003171;28;20504;-35
2023/05/29 07:33:02;;;;;;;13.57;2.53;;;16.10;99.90;;;;;;4980881;28;20034;-35
2023/05/29 07:35:28;;;;;;;9.90;2.30;;;15.80;99.90;;;;;;4962170;28;20085;-35
2023/05/29 07:37:54;;;;;;;9.90;2.72;;;15.80;99.90;;;;;;4971428;28;20126;-35
2023/05/29 07:40:19;;;;;;;6.50;1.98;;;16.00;99.90;;;;;;4983806;28;20034;-35
2023/05/29 07:42:45;;;;;;;8.90;2.35;;;16.40;99.90;;;;;;4976037;28;20132;-35
2023/05/29 07:45:11;;;;;;;10.23;2.33;;;16.60;99.90;;;;;;4983114;28;20053;-35
2023/05/29 07:47:37;;;;;;;8.85;2.15;;;16.80;99.90;;;;;;4997643;28;20145;-35
2023/05/29 07:50:03;;;;;;;13.90;2.90;;;16.90;99.90;;;;;;4963981;28;20034;-35
2023/05/29 07:52:28;;;;;;;12.35;2.80;;;17.10;99.90;;;;;;4980804;28;20034;-36
2023/05/29 07:54:55;;;;;;;10.15;2.63;;;17.30;99.90;;;;;;4987535;28;20026;-35
2023/05/29 07:57:21;;;;;;;9.75;2.30;;;17.40;99.90;;;;;;4984091;28;20059;-36
2023/05/29 07:59:49;;;;;;;5.97;1.90;;;17.40;99.90;;;;;;4981547;28;20050;-35
2023/05/29 08:02:16;;;;;;;9.20;2.33;;;;;;;;;;4980094;28;20484;-35
2023/05/29 08:04:41;;;;;;;9.10;2.40;;;17.30;99.90;;;;;;4984215;28;20043;-35
2023/05/29 08:07:08;;;;;;;8.60;2.58;;;17.10;99.90;;;;;;4964485;28;20038;-35
2023/05/29 08:09:35;;;;;;;8.38;2.45;;;16.70;99.90;;;;;;4964905;28;20038;-35
2023/05/29 08:12:01;;;;;;;12.07;2.70;;;16.20;99.90;;;;;;4974614;28;20042;-35
2023/05/29 08:14:27;;;;;;;6.53;1.90;;;16.00;99.90;;;;;;4967375;28;20083;-35
2023/05/29 08:16:53;;;;;;;11.63;2.42;;;15.80;99.90;;;;;;4977048;28;20046;-35
2023/05/29 08:19:19;;;;;;;11.23;2.35;;;15.50;99.90;;;;;;4964020;28;20055;-35
2023/05/29 08:21:45;;;;;;;9.73;2.33;;;15.50;99.90;;;;;;4955740;28;20039;-35
2023/05/29 08:24:11;;;;;;;9.50;2.25;;;15.30;99.90;;;;;;4975541;28;20051;-36
2023/05/29 08:26:37;;;;;;;7.18;2.20;;;15.20;99.90;;;;;;4995119;28;20038;-35
2023/05/29 08:29:03;;;;;;;10.80;2.60;;;15.10;99.90;;;;;;4977537;28;20039;-35
2023/05/29 08:31:31;;;;;;;6.63;2.05;;;15.00;99.90;;;;;;4961416;28;20038;-35
2023/05/29 08:33:57;;;;;;;11.45;2.72;;;15.00;99.90;;;;;;4979070;28;20133;-35
2023/05/29 08:36:25;;;;;;;11.10;2.33;;;14.90;99.90;;;;;;4971816;28;20165;-35
2023/05/29 08:38:51;;;;;;;12.00;2.40;;;14.80;99.90;;;;;;4971744;28;20099;-35
2023/05/29 08:41:56;;;;;;;9.07;2.03;;;14.80;99.90;;;;;;4964480;28;20053;-35
2023/05/29 08:44:23;;;;;;;11.90;2.38;;;14.80;99.90;;;;;;4984800;28;20038;-35
2023/05/29 08:46:55;;;;;;;6.40;1.83;;;14.70;99.90;;;;;;4985092;28;20298;-35
2023/05/29 08:49:25;;;;;;;10.05;2.03;;;14.50;99.90;;;;;;4980668;28;20521;-35
2023/05/29 08:52:16;;;;;;;13.95;2.53;;;14.30;99.90;;;;;;4964743;28;20120;-36
2023/05/29 08:54:43;;;;;;;10.25;2.20;;;14.20;99.90;;;;;;4981372;28;20871;-35
2023/05/29 08:57:11;;;;;;;11.20;2.10;;;14.40;99.90;;;;;;4975820;28;20050;-36
2023/05/29 08:59:41;;;;;;;10.07;2.50;;;14.60;99.90;;;;;;4980426;28;20050;-36
2023/05/29 09:02:07;;;;;;;9.55;2.15;;;14.70;99.90;;;;;;4967903;28;20042;-36
2023/05/29 09:04:33;;;;;;;8.60;2.70;;;14.80;99.90;;;;;;4988663;28;20395;-36
2023/05/29 09:06:59;;;;;;;11.35;2.38;;;14.90;99.90;;;;;;4986357;28;20134;-45
2023/05/29 09:09:31;;;;;;;8.65;2.55;;;15.00;99.90;;;;;;4977202;28;20062;-36
2023/05/29 09:11:58;;;;;;;9.95;2.38;;;15.10;99.90;;;;;;4969129;28;20047;-36
2023/05/29 09:14:42;;;;;;;9.50;3.00;;;15.10;99.90;;;;;;4970935;28;20046;-36
2023/05/29 09:17:09;;;;;;;10.05;2.33;;;15.00;99.90;;;;;;4982318;28;20078;-36
2023/05/29 09:19:38;;;;;;;11.20;2.50;;;15.00;99.90;;;;;;4976046;28;20039;-36
2023/05/29 09:22:15;;;;;;;8.98;2.40;;;15.10;99.90;;;;;;4982562;28;20559;-37
2023/05/29 09:24:51;;;;;;;7.20;2.40;;;15.20;99.90;;;;;;4982335;28;20053;-36
2023/05/29 09:27:17;;;;;;;9.57;2.25;;;15.20;99.90;;;;;;4983285;28;20497;-36
2023/05/29 09:29:45;;;;;;;13.30;2.38;;;15.30;99.90;;;;;;4980109;28;20246;-36
2023/05/29 09:32:18;;;;;;;11.50;2.50;;;15.40;99.90;;;;;;4989453;28;20042;-36
2023/05/29 09:34:45;;;;;;;7.63;1.95;;;15.40;99.90;;;;;;4983512;28;20046;-37
2023/05/29 09:37:12;;;;;;;9.85;2.80;;;15.40;99.90;;;;;;4987177;28;20594;-36
2023/05/29 09:39:51;;;;;;;12.70;2.45;;;15.30;99.90;;;;;;4976145;28;20046;-36
2023/05/29 09:42:17;;;;;;;9.35;2.10;;;15.50;99.90;;;;;;4979639;28;20049;-36
2023/05/29 09:44:48;;;;;;;12.00;2.75;;;15.50;99.90;;;;;;4976212;28;20046;-36
2023/05/29 09:47:21;;;;;;;10.30;2.53;;;15.50;99.90;;;;;;4984393;28;20496;-36
2023/05/29 09:49:47;;;;;;;11.40;2.50;;;15.70;99.90;;;;;;4984041;28;20077;-36
2023/05/29 09:52:16;;;;;;;11.80;3.50;;;15.70;99.90;;;;;;4988853;28;20094;-35
2023/05/29 09:54:45;;;;;;;8.82;2.33;;;15.70;99.90;;;;;;4986785;28;20096;-36
2023/05/29 09:57:14;;;;;;;8.60;2.28;;;15.80;99.90;;;;;;4954633;28;20311;-36
2023/05/29 09:59:44;;;;;;;11.82;2.70;;;15.90;99.90;;;;;;4969366;28;20486;-36
2023/05/29 10:02:12;;;;;;;7.68;2.03;;;16.00;99.90;;;;;;4980747;28;20034;-35
2023/05/29 10:04:40;;;;;;;;;;;16.10;99.90;;;;;;4985354;28;20061;-36
2023/05/29 10:07:25;;;;;;;9.65;2.47;;;16.20;99.90;;;;;;4991373;28;19925;-36
2023/05/29 10:09:55;;;;;;;8.25;2.40;;;16.20;99.90;;;;;;4992547;28;20048;-36
2023/05/29 10:12:22;;;;;;;10.02;3.08;;;16.20;99.90;;;;;;4966532;28;20089;-35
2023/05/29 10:14:50;;;;;;;8.20;2.30;;;16.40;99.90;;;;;;4989565;28;20042;-36
2023/05/29 10:17:20;;;;;;;6.43;1.80;;;16.40;99.90;;;;;;4977104;28;20046;-35
2023/05/29 10:19:49;;;;;;;9.13;2.83;;;16.50;99.90;;;;;;4985469;28;20468;-36
2023/05/29 10:22:19;;;;;;;7.78;1.95;;;16.50;99.90;;;;;;4971151;28;20410;-37
2023/05/29 10:24:48;;;;;;;11.93;2.78;;;16.50;99.90;;;;;;4976875;28;20049;-36
2023/05/29 10:27:15;;;;;;;12.18;2.70;;;16.50;99.90;;;;;;4972439;28;20085;-36
2023/05/29 10:29:56;;;;;;;8.90;2.55;;;16.40;99.90;;;;;;4974926;28;20069;-36
2023/05/29 10:32:43;;;;;;;10.52;2.78;;;16.10;99.90;;;;;;4959462;28;20057;-36
2023/05/29 10:35:27;;;;;;;9.33;2.10;;;16.20;99.90;;;;;;4991620;28;20058;-35
2023/05/29 10:38:10;;;;;;;12.70;2.55;;;16.10;99.90;;;;;;4981278;28;20503;-36
2023/05/29 10:40:35;;;;;;;9.63;2.30;;;16.00;99.90;;;;;;4971423;28;20605;-36
2023/05/29 10:43:01;;;;;;;9.20;2.22;;;16.00;99.90;;;;;;4977947;28;20057;-36
2023/05/29 10:45:33;;;;;;;10.13;2.08;;;16.10;99.90;;;;;;4988819;28;20035;-36
2023/05/29 10:48:10;;;;;;;7.72;2.42;;;16.30;99.90;;;;;;4985219;28;20434;-36
2023/05/29 10:50:38;;;;;;;7.68;2.13;;;16.40;99.90;;;;;;4983441;28;20065;-35
2023/05/29 10:53:14;;;;;;;9.82;2.75;;;16.50;99.90;;;;;;4968255;28;20034;-36
2023/05/29 10:55:41;;;;;;;9.82;2.13;;;16.30;99.90;;;;;;4975202;28;20042;-35
2023/05/29 10:58:07;;;;;;;8.13;2.42;;;16.10;99.90;;;;;;4989023;28;20119;-35
2023/05/29 11:00:43;;;;;;;8.40;2.42;;;16.10;99.90;;;;;;4978781;28;20047;-35
2023/05/29 11:03:10;;;;;;;9.38;2.58;;;16.20;99.90;;;;;;4986612;28;20519;-36
2023/05/29 11:05:55;;;;;;;;;;;16.20;99.90;;;;;;4968304;28;20277;-36
2023/05/29 11:09:09;;;;;;;10.75;2.13;;;16.00;99.90;;;;;;4969910;28;19933;-35
2023/05/29 11:11:41;;;;;;;9.57;2.40;;;16.10;99.90;;;;;;4958613;28;20050;-36
2023/05/29 11:14:08;;;;;;;7.72;1.85;;;16.00;99.90;;;;;;4995141;28;20042;-36
2023/05/29 11:16:37;;;;;;;8.73;1.90;;;16.00;99.90;;;;;;4976456;28;20122;-36
2023/05/29 11:19:37;;;;;;;12.20;2.03;;;15.90;99.90;;;;;;4979102;28;20500;-36
2023/05/29 11:22:22;;;;;;;8.27;2.45;;;15.70;99.90;;;;;;4990667;28;20160;-36
2023/05/29 11:24:51;;;;;;;11.25;2.25;;;15.60;99.90;;;;;;4981684;28;20046;-36
2023/05/29 11:27:19;;;;;;;8.13;2.08;;;15.50;99.90;;;;;;4980736;28;20031;-36
2023/05/29 11:29:48;;;;;;;7.47;2.15;;;15.50;99.90;;;;;;4970516;28;20030;-36
2023/05/29 11:32:17;;;;;;;6.97;2.15;;;15.70;99.90;;;;;;4978269;28;20382;-36
2023/05/29 11:34:53;;;;;;;8.20;1.92;;;15.80;99.90;;;;;;4969571;28;20074;-36
2023/05/29 11:37:37;;;;;;;8.30;2.00;;;15.90;99.90;;;;;;4970641;28;20054;-36
2023/05/29 11:40:14;;;;;;;8.57;2.00;;;16.00;99.90;;;;;;5007604;28;20049;-36
2023/05/29 11:42:48;;;;;;;7.40;2.40;;;16.10;99.90;;;;;;4989562;28;20026;-36
2023/05/29 11:45:24;;;;;;;9.27;1.83;;;16.10;99.90;;;;;;4993666;28;20074;-36
2023/05/29 11:48:03;;;;;;;9.20;2.10;;;16.10;99.90;;;;;;4978503;28;20517;-36
2023/05/29 11:50:47;;;;;;;9.60;2.40;;;16.10;99.90;;;;;;4983765;28;20084;-36
2023/05/29 11:53:19;;;;;;;8.43;1.95;;;15.90;99.90;;;;;;4971437;28;20050;-36
2023/05/29 11:55:47;;;;;;;6.97;2.00;;;15.90;99.90;;;;;;4983185;28;20380;-36
2023/05/29 11:58:13;;;;;;;7.15;2.10;;;16.00;99.90;;;;;;4969717;28;20050;-36
2023/05/29 12:00:43;;;;;;;11.02;2.33;;;16.00;99.90;;;;;;4990541;28;20083;-36
2023/05/29 12:03:09;;;;;;;8.40;2.10;;;16.00;99.90;;;;;;4976791;28;20042;-37
2023/05/29 12:05:46;;;;;;;11.68;2.30;;;16.10;99.90;;;;;;4981752;28;20100;-35
2023/05/29 12:08:11;;;;;;;7.93;2.22;;;16.00;99.90;;;;;;4986040;28;20134;-35
2023/05/29 12:10:48;;;;;;;7.80;2.30;;;15.90;99.90;;;;;;4986135;28;20508;-35
2023/05/29 12:13:19;;;;;;;11.43;2.60;;;15.90;99.90;;;;;;4982338;28;20117;-36
2023/05/29 12:15:55;;;;;;;9.88;3.08;;;15.80;99.90;;;;;;4969592;28;20061;-36
2023/05/29 12:18:24;;;;;;;5.53;1.85;;;15.90;99.90;;;;;;4981674;28;20081;-36
2023/05/29 12:21:14;;;;;;;7.70;1.67;;;15.90;99.90;;;;;;4979316;28;20162;-36
2023/05/29 12:23:57;;;;;;;8.07;2.17;;;15.90;99.90;;;;;;4985315;28;20039;-36
2023/05/29 12:26:30;;;;;;;7.53;1.80;;;15.70;99.90;;;;;;4986391;28;20050;-36
2023/05/29 12:28:56;;;;;;;10.95;1.90;;;15.60;99.90;;;;;;4982673;28;20035;-36
2023/05/29 12:31:28;;;;;;;7.55;2.00;;;15.60;99.90;;;;;;4968679;28;20484;-36
2023/05/29 12:34:02;;;;;;;6.15;2.03;;;15.60;99.90;;;;;;4980873;28;20061;-36
2023/05/29 12:36:28;;;;;;;9.98;1.70;;;15.60;99.90;;;;;;4978014;28;20432;-36
2023/05/29 12:38:53;;;;;;;8.82;2.38;;;15.70;99.90;;;;;;4991131;28;20114;-36
2023/05/29 12:41:41;;;;;;;7.63;1.92;;;15.70;99.90;;;;;;4992241;28;20057;-36
2023/05/29 12:44:18;;;;;;;5.90;1.60;;;15.70;99.90;;;;;;4988662;28;20050;-36
2023/05/29 12:46:47;;;;;;;11.10;2.28;;;15.70;99.90;;;;;;4978047;28;20480;-36
2023/05/29 12:49:25;;;;;;;8.43;1.88;;;15.70;99.90;;;;;;4979606;28;20062;-36
2023/05/29 12:52:05;;;;;;;8.63;1.80;;;15.60;99.90;;;;;;4988696;28;20050;-36
2023/05/29 12:54:31;;;;;;;9.82;1.88;;;15.60;99.90;;;;;;4985196;28;20344;-36
2023/05/29 12:57:03;;;;;;;7.85;1.80;;;15.50;99.90;;;;;;4992483;28;20095;-36
2023/05/29 12:59:30;;;;;;;5.82;1.80;;;15.50;99.90;;;;;;4994614;28;20081;-36